Branch, Michigan
Current Conditions -  °F | °C
As of 9:35 PM on Saturday 20 Dec 2014 (Local Time) from KLDM Reporting Station
Haze Haze  
Wind Chill: 26°   Ceiling: 3800
Heat Index: 31°   Visibility: 5mi
Dew Point: 27°   Wind: 5mph
Humidity: 87%   Direction: 130°SE
Pressure: 30.25"   Gusts: NA
Location:  43.92°N, 86.07°W
Report Text: KLDM 210235Z AUTO 13004KT 5SM BR SCT023 SCT028 OVC038 M01/M03 A3025 RMK AO2 T10071026
Loading
Personal Weather Stations






























Interactive Weather Map New forecast layout! Learn more

10-Day Weather Forecast

Advertisements
Track Severe Weather on mobile